Thunder radar more information blitzortung!


avis per Pluja more information rain snow radar


Visita la nostra xarxa de llocs de meteo:

Template documentation
and downloads

And another site



Rain From: 17-10-2018 23:00 Until: 18-10-2018 16:59 warning for: Rain Level: Yellow info button

Pagina Historial Weather Underground text

Diari Resum Marc 30, 2016 Unitats:  Mètric    Imperial   Tant
« Previous Dia
SegĂźent Dia »
Diari Setmana Mensual Anual Personalitzada
  Maxima: Minima: Media:
Temperatura: -17.8 °C -12.9 °C -8.1 °C
Punt de rosada: -17.8 °C -16.6 °C -14.7 °C
Humitat: Humidity % 28 % 48 %
Wind Speed: 0 km/h 0 km/h 9.5 km/h
RĂ fegues de vent: 0 km/h - -
Vent:- - South
Pression baro: 0 hPa 34293.4 hPa -
Precipitacions: 0 mm    
Historical Graphs
 
 
Dades de taula per Marc 30, 2016
Temps Temperatura Punt de rosada Pression baro Vent Wind Speed RĂ fegues de vent Humitat Rainfall Rate (Hourly)
-17.8 °C -17.8 °C 0 hPa Calm     Humidity % 0 mm
00:03 -10.4 °C -15.5 °C 34462.7 hPa SW 4.2 km/h 4.2 km/h 54 % 0 mm
00:05 -11.9 °C -15.6 °C 34428.8 hPa Calm   2.6 km/h 64 % 0 mm
00:15 -11.9 °C -15.6 °C 34428.8 hPa West 2.6 km/h 5.1 km/h 64 % 0 mm
00:25 -12 °C -15.2 °C 34428.8 hPa North 2.6 km/h 5.1 km/h 67 % 0 mm
00:35 -12.3 °C -15.6 °C 34428.8 hPa Calm   5.1 km/h 67 % 0 mm
00:45 -12.4 °C -15.7 °C 34428.8 hPa Calm   2.6 km/h 67 % 0 mm
00:55 -12.6 °C -15.8 °C 34428.8 hPa Calm   2.6 km/h 67 % 0 mm
01:05 -12.7 °C -15.8 °C 34428.8 hPa Calm     68 % 0 mm
01:15 -12.7 °C -15.8 °C 34395 hPa Calm     68 % 0 mm
01:25 -12.7 °C -15.8 °C 34395 hPa Calm     68 % 0 mm
01:45 -12.7 °C -15.8 °C 34395 hPa Calm     68 % 0 mm
01:55 -12.7 °C -15.6 °C 34395 hPa Calm     70 % 0 mm
02:05 -12.7 °C -15.6 °C 34395 hPa Calm     70 % 0 mm
02:15 -12.7 °C -15.6 °C 34395 hPa WSW 2.6 km/h 5.1 km/h 70 % 0 mm
02:25 -12.7 °C -15.6 °C 34428.8 hPa WSW 2.6 km/h 5.1 km/h 70 % 0 mm
02:35 -12.7 °C -15.6 °C 34428.8 hPa Calm     70 % 0 mm
02:45 -12.9 °C -15.7 °C 34428.8 hPa Calm     71 % 0 mm
02:55 -12.9 °C -15.7 °C 34428.8 hPa Calm     71 % 0 mm
03:05 -12.7 °C -15.3 °C 34428.8 hPa NW 2.6 km/h 5.1 km/h 72 % 0 mm
03:15 -12.7 °C -15.7 °C 34395 hPa NNE 5.1 km/h 5.1 km/h 69 % 0 mm
03:25 -12.8 °C -15.7 °C 34428.8 hPa West 2.6 km/h 5.1 km/h 70 % 0 mm
03:35 -12.7 °C -15.4 °C 34428.8 hPa Calm   5.1 km/h 71 % 0 mm
03:45 -12.3 °C -15.1 °C 34428.8 hPa Calm   5.1 km/h 71 % 0 mm
03:55 -12.4 °C -15.3 °C 34428.8 hPa SW 5.1 km/h 7.7 km/h 70 % 0 mm
04:05 -12.2 °C -15 °C 34428.8 hPa SW 5.1 km/h 7.7 km/h 71 % 0 mm
04:15 -12 °C -14.8 °C 34428.8 hPa SW 5.1 km/h 7.7 km/h 71 % 0 mm
04:25 -11.8 °C -14.6 °C 34462.7 hPa SW 5.1 km/h 7.7 km/h 71 % 0 mm
04:35 -11.4 °C -14.4 °C 34462.7 hPa SW 2.6 km/h 5.1 km/h 70 % 0 mm
04:45 -11.3 °C -14.2 °C 34462.7 hPa Calm   7.7 km/h 70 % 0 mm
04:55 -10.9 °C -13.9 °C 34462.7 hPa SW 5.1 km/h 7.7 km/h 69 % 0 mm
05:05 -10.3 °C -13.6 °C 34462.7 hPa SSW 2.6 km/h 5.1 km/h 68 % 0 mm
05:15 -9.9 °C -13.4 °C 34462.7 hPa ESE 2.6 km/h 10.3 km/h 66 % 0 mm
05:25 -9.7 °C -13.3 °C 34462.7 hPa ENE 2.6 km/h 7.7 km/h 65 % 0 mm
05:35 -9.4 °C -13.2 °C 34462.7 hPa NE 5.1 km/h 7.7 km/h 64 % 0 mm
10:38 -9.3 °C -13.1 °C 34462.7 hPa NNE 3.1 km/h 3.7 km/h 64 % 0 mm
10:43 -9.2 °C -13.1 °C 34462.7 hPa ENE 6 km/h 6 km/h 63 % 0 mm
10:53 -8.9 °C -12.9 °C 34462.7 hPa SW 6 km/h 6 km/h 63 % 0 mm
10:58 -8.9 °C -12.9 °C 34462.7 hPa SW 6 km/h 6 km/h 63 % 0 mm
11:03 -8.6 °C -12.6 °C 34462.7 hPa East 4.2 km/h 4.2 km/h 62 % 0 mm
11:13 -8.3 °C -12.6 °C 34462.7 hPa NE 6.3 km/h 6.3 km/h 60 % 0 mm
11:18 -8.3 °C -12.6 °C 34462.7 hPa SW 6 km/h 6 km/h 60 % 0 mm
11:24 -7.8 °C -12.3 °C 34462.7 hPa East 6.3 km/h 6.3 km/h 59 % 0 mm
11:29 -7.7 °C -12.3 °C 34462.7 hPa WSW 12.7 km/h 12.7 km/h 59 % 0 mm
11:34 -7.6 °C -12.4 °C 34462.7 hPa SSE 3.1 km/h 3.1 km/h 57 % 0 mm
11:39 -7.4 °C -12.3 °C 34462.7 hPa SE 6 km/h 6 km/h 57 % 0 mm
11:44 -7.3 °C -12.1 °C 34462.7 hPa SSW 11.9 km/h 11.9 km/h 57 % 0 mm
11:49 -7.2 °C -12.4 °C 34462.7 hPa SSW 15 km/h 15 km/h 54 % 0 mm
11:54 -7.2 °C -12.7 °C 34462.7 hPa SE 6 km/h 6 km/h 53 % 0 mm
11:59 -7 °C -12.4 °C 34462.7 hPa SSW 6 km/h 6 km/h 53 % 0 mm
12:09 -6.7 °C -12.4 °C 34428.8 hPa SSW 15 km/h 15 km/h 51 % 0 mm
12:14 -6.7 °C -12.6 °C 34428.8 hPa SW 6 km/h 6 km/h 50 % 0 mm
12:19 -6.4 °C -12.4 °C 34428.8 hPa SW 11.9 km/h 11.9 km/h 50 % 0 mm
12:24 -6.3 °C -12.1 °C 34428.8 hPa ESE 9 km/h 9 km/h 51 % 0 mm
12:29 -6.4 °C -12.4 °C 34428.8 hPa SSW 15 km/h 15 km/h 50 % 0 mm
12:34 -6.2 °C -12.2 °C 34428.8 hPa South 9 km/h   50 % 0 mm
12:39 -6.1 °C -12.3 °C 34428.8 hPa ENE 10.3 km/h 10.3 km/h 49 % 0 mm
12:44 -6 °C -12.2 °C 34428.8 hPa SSW 11.9 km/h 11.9 km/h 49 % 0 mm
12:49 -5.9 °C -12.1 °C 34428.8 hPa South 6 km/h 6 km/h 49 % 0 mm
12:54 -6.1 °C -12.4 °C 34395 hPa ENE 15 km/h 15 km/h 48 % 0 mm
12:59 -6.1 °C -12.4 °C 34395 hPa SE 9 km/h 9 km/h 48 % 0 mm
13:04 -6 °C -12.4 °C 34395 hPa East 15 km/h 15 km/h 48 % 0 mm
13:09 -5.8 °C -12.3 °C 34395 hPa South 15 km/h 15 km/h 47 % 0 mm
13:14 -5.5 °C -12.1 °C 34395 hPa ENE 11.9 km/h 11.9 km/h 47 % 0 mm
13:19 -5.7 °C -12.3 °C 34395 hPa East 15 km/h 15 km/h 47 % 0 mm
13:24 -5.7 °C -12.2 °C 34395 hPa East 11.9 km/h 11.9 km/h 47 % 0 mm
13:29 -5.6 °C -12.3 °C 34395 hPa ESE 15.3 km/h 15.3 km/h 46 % 0 mm
13:34 -5.4 °C -12.2 °C 34395 hPa ENE 11.9 km/h 11.9 km/h 46 % 0 mm
13:39 -5.2 °C -11.9 °C 34395 hPa SW 9.3 km/h 9.3 km/h 46 % 0 mm
13:44 -5.1 °C -12.4 °C 34395 hPa SW 17.9 km/h 17.9 km/h 43 % 0 mm
13:49 -5 °C -12.6 °C 34395 hPa ESE 15 km/h 15 km/h 42 % 0 mm
13:54 -4.7 °C -12.5 °C 34361.1 hPa ESE 15.3 km/h 15.3 km/h 41 % 0 mm
13:59 -5.2 °C -12.5 °C 34361.1 hPa SSE 11.9 km/h 11.9 km/h 43 % 0 mm
14:04 -5.1 °C -12.3 °C 34361.1 hPa SSE 20.9 km/h 20.9 km/h 44 % 0 mm
14:09 -5.1 °C -12.1 °C 34395 hPa SSE 9 km/h 9 km/h 45 % 0 mm
14:14 -4.8 °C -12.1 °C 34395 hPa SW 20.9 km/h 20.9 km/h 44 % 0 mm
14:19 -5 °C -12.2 °C 34395 hPa SSW 15 km/h 15 km/h 44 % 0 mm
14:24 -4.8 °C -12 °C 34395 hPa East 9 km/h 9 km/h 44 % 0 mm
14:29 -4.8 °C -12 °C 34395 hPa South 9.3 km/h 9.3 km/h 44 % 0 mm
14:34 -4.4 °C -12.3 °C 34395 hPa SSW 6 km/h 6 km/h 41 % 0 mm
14:39 -4.6 °C -13 °C 34395 hPa South 15 km/h 15 km/h 38 % 0 mm
14:44 -4.7 °C -13.4 °C 34395 hPa SW 15 km/h 15 km/h 37 % 0 mm
14:49 -4.6 °C -14.4 °C 34395 hPa SW 23.8 km/h 23.8 km/h 32 % 0 mm
14:54 -4.9 °C -15.2 °C 34395 hPa SW 26.9 km/h 26.9 km/h 30 % 0 mm
14:59 -4.4 °C -14.2 °C 34395 hPa SW 15 km/h 15 km/h 32 % 0 mm
15:04 -4.2 °C -14.3 °C 34395 hPa WNW 11.9 km/h 11.9 km/h 31 % 0 mm
15:09 -4.4 °C -15.1 °C 34395 hPa WSW 20.9 km/h 20.9 km/h 29 % 0 mm
15:19 -4.4 °C -15.1 °C 34395 hPa SW 15 km/h 15 km/h 29 % 0 mm
15:24 -4.6 °C -15.4 °C 34395 hPa SW 23.8 km/h 23.8 km/h 28 % 0 mm
15:29 -4.5 °C -15.4 °C 34395 hPa SW 22 km/h 22 km/h 28 % 0 mm
15:34 -4.6 °C -15.5 °C 34395 hPa WSW 16.6 km/h 16.6 km/h 28 % 0 mm
15:39 -4.7 °C -15.6 °C 34395 hPa SW 20.9 km/h 20.9 km/h 28 % 0 mm
15:44 -4.6 °C -15.4 °C 34395 hPa WSW 20.9 km/h 20.9 km/h 28 % 0 mm
15:49 -4.7 °C -15.6 °C 34395 hPa WSW 15 km/h 15 km/h 28 % 0 mm
15:54 -4.7 °C -15.6 °C 34361.1 hPa SSW 26.9 km/h 26.9 km/h 28 % 0 mm
15:59 -4.9 °C -15.8 °C 34361.1 hPa SSW 23.8 km/h 23.8 km/h 28 % 0 mm
16:04 -4.7 °C -15.6 °C 34361.1 hPa SW 20.9 km/h 20.9 km/h 28 % 0 mm
16:09 -4.7 °C -15.6 °C 34361.1 hPa SSW 15 km/h 15 km/h 28 % 0 mm
16:19 -4.4 °C -15.4 °C 34361.1 hPa SW 20.9 km/h 20.9 km/h 28 % 0 mm
16:24 -4.3 °C -15.2 °C 34361.1 hPa WSW 9 km/h 9 km/h 28 % 0 mm
16:29 -4.2 °C -15.2 °C 34361.1 hPa SW 9 km/h 9 km/h 28 % 0 mm
16:34 -4.3 °C -15.2 °C 34361.1 hPa SSW 12.2 km/h 12.2 km/h 28 % 0 mm
16:39 -4.4 °C -15.1 °C 34395 hPa WSW 11.9 km/h 11.9 km/h 29 % 0 mm
16:44 -4.7 °C -15.3 °C 34395 hPa South 11.9 km/h 11.9 km/h 29 % 0 mm
16:49 -4.7 °C -15.3 °C 34395 hPa ESE 15 km/h 15 km/h 29 % 0 mm
16:54 -5.1 °C -15.3 °C 34361.1 hPa SSE 29.8 km/h 29.8 km/h 30 % 0 mm
16:59 -4.6 °C -15.5 °C 34361.1 hPa South 11.9 km/h 11.9 km/h 28 % 0 mm
17:04 -4.7 °C -15.6 °C 34361.1 hPa SSW 9 km/h 9 km/h 28 % 0 mm
17:09 -4.6 °C -15.2 °C 34361.1 hPa SE 9 km/h 9 km/h 29 % 0 mm
17:14 -4.5 °C -15.1 °C 34361.1 hPa SW 9 km/h 9 km/h 29 % 0 mm
17:19 -4.5 °C -15.1 °C 34361.1 hPa West 9.8 km/h 9.8 km/h 29 % 0 mm
17:24 -4.6 °C -15.2 °C 34361.1 hPa WSW 11.9 km/h 11.9 km/h 29 % 0 mm
17:29 -5.1 °C -15.7 °C 34361.1 hPa SSW 20.9 km/h 20.9 km/h 29 % 0 mm
17:34 -5.2 °C -15.7 °C 34361.1 hPa South 15.3 km/h 15.3 km/h 29 % 0 mm
17:44 -5.6 °C -16.1 °C 34361.1 hPa WNW 15 km/h 15 km/h 29 % 0 mm
17:49 -5.7 °C -16.2 °C 34361.1 hPa WSW 15 km/h 15 km/h 29 % 0 mm
17:54 -5.8 °C -16.3 °C 34361.1 hPa West 17.9 km/h 17.9 km/h 29 % 0 mm
17:59 -6 °C -16.2 °C 34361.1 hPa SW 17.9 km/h 17.9 km/h 30 % 0 mm
18:04 -6.3 °C -16.4 °C 34361.1 hPa SW 15 km/h 15 km/h 30 % 0 mm
18:09 -6.3 °C -16.4 °C 34327.3 hPa WSW 29.8 km/h 29.8 km/h 30 % 0 mm
18:14 -6.2 °C -16.3 °C 34327.3 hPa SW 23.8 km/h 23.8 km/h 30 % 0 mm
18:19 -6.2 °C -16.3 °C 34327.3 hPa WSW 17.9 km/h 17.9 km/h 30 % 0 mm
18:24 -6.4 °C -16.2 °C 34327.3 hPa SW 20.9 km/h 20.9 km/h 31 % 0 mm
18:29 -6.6 °C -16.4 °C 34327.3 hPa SSW 23.3 km/h 23.3 km/h 31 % 0 mm
18:34 -6.7 °C -16.3 °C 34327.3 hPa SSW 26.9 km/h 26.9 km/h 32 % 0 mm
18:39 -6.9 °C -16.2 °C 34327.3 hPa SW 23.8 km/h 23.8 km/h 33 % 0 mm
18:44 -7.2 °C -16.4 °C 34327.3 hPa WSW 27.2 km/h 27.2 km/h 33 % 0 mm
18:54 -7.3 °C -16.6 °C 34327.3 hPa SW 17.9 km/h 17.9 km/h 33 % 0 mm
18:59 -7.4 °C -16.4 °C 34327.3 hPa SW 23.8 km/h 23.8 km/h 34 % 0 mm
19:04 -7.6 °C -16.3 °C 34327.3 hPa WSW 15 km/h 15 km/h 35 % 0 mm
19:09 -7.7 °C -16.2 °C 34327.3 hPa SW 15 km/h 15 km/h 36 % 0 mm
19:14 -7.8 °C -16.1 °C 34327.3 hPa SW 15 km/h 15 km/h 37 % 0 mm
19:19 -7.9 °C -15.7 °C 34327.3 hPa SSW 17.9 km/h 17.9 km/h 39 % 0 mm
19:24 -8 °C -15.9 °C 34327.3 hPa SSE 11.9 km/h 11.9 km/h 39 % 0 mm
19:29 -8.1 °C -15.9 °C 34327.3 hPa SW 15.3 km/h 15.3 km/h 39 % 0 mm
19:34 -8.2 °C -15.8 °C 34327.3 hPa WSW 15 km/h 15 km/h 40 % 0 mm
19:39 -8.3 °C -15.9 °C 34327.3 hPa SW 15 km/h 15 km/h 40 % 0 mm
19:44 -8.3 °C -15.7 °C 34327.3 hPa SSW 11.9 km/h 11.9 km/h 41 % 0 mm
19:49 -8.4 °C -15.8 °C 34327.3 hPa WSW 11.1 km/h 11.1 km/h 41 % 0 mm
19:54 -8.4 °C -15.9 °C 34327.3 hPa SW 11.9 km/h 11.9 km/h 41 % 0 mm
19:59 -8.5 °C -15.7 °C 34327.3 hPa WSW 11.9 km/h 11.9 km/h 42 % 0 mm
20:04 -8.6 °C -15.8 °C 34327.3 hPa SW 9 km/h 9 km/h 42 % 0 mm
20:09 -8.6 °C -15.8 °C 34327.3 hPa WSW 9.3 km/h 9.3 km/h 42 % 0 mm
20:19 -8.7 °C -15.7 °C 34327.3 hPa SSW 9 km/h 9 km/h 43 % 0 mm
20:24 -8.8 °C -15.6 °C 34327.3 hPa SSW 6 km/h 6 km/h 44 % 0 mm
20:29 -8.8 °C -15.7 °C 34327.3 hPa SW 6 km/h 6 km/h 44 % 0 mm
20:34 -8.9 °C -15.7 °C 34327.3 hPa SW 3.7 km/h 3.7 km/h 44 % 0 mm
20:39 -8.9 °C -15.7 °C 34327.3 hPa WSW 6 km/h 6 km/h 44 % 0 mm
20:44 -9 °C -15.6 °C 34327.3 hPa West 3.1 km/h   45 % 0 mm
20:49 -9.1 °C -15.7 °C 34327.3 hPa WSW 6 km/h 6 km/h 45 % 0 mm
20:55 -9.1 °C -15.7 °C 34327.3 hPa WSW 5.1 km/h 5.1 km/h 45 % 0 mm
21:00 -9.1 °C -15.6 °C 34327.3 hPa WSW 6 km/h 6 km/h 46 % 0 mm
21:05 -9.2 °C -15.7 °C 34327.3 hPa SW 9 km/h 9 km/h 46 % 0 mm
21:10 -9.3 °C -15.5 °C 34327.3 hPa Calm     47 % 0 mm
21:15 -9.3 °C -15.6 °C 34327.3 hPa SW 3.1 km/h   47 % 0 mm
21:20 -9.4 °C -15.5 °C 34327.3 hPa Calm     48 % 0 mm
21:25 -9.4 °C -15.5 °C 34327.3 hPa Calm   5.1 km/h 48 % 0 mm
21:30 -9.6 °C -15.4 °C 34327.3 hPa SSE 3.1 km/h   49 % 0 mm
21:35 -9.6 °C -15.5 °C 34327.3 hPa Calm     49 % 0 mm
21:40 -9.7 °C -15.6 °C 34327.3 hPa Calm     49 % 0 mm
21:50 -9.7 °C -15.4 °C 34327.3 hPa Calm     50 % 0 mm
21:55 -9.8 °C -15.5 °C 34327.3 hPa SE 2.6 km/h 2.6 km/h 50 % 0 mm
22:00 -9.8 °C -15.3 °C 34327.3 hPa ENE 3.1 km/h 3.1 km/h 51 % 0 mm
22:05 -9.8 °C -15.3 °C 34327.3 hPa Calm   5.1 km/h 51 % 0 mm
22:10 -9.8 °C -15.2 °C 34327.3 hPa ENE 3.1 km/h 3.1 km/h 52 % 0 mm
22:15 -9.8 °C -15.1 °C 34327.3 hPa Calm     53 % 0 mm
22:20 -9.9 °C -15.2 °C 34327.3 hPa ENE 4.2 km/h 4.2 km/h 53 % 0 mm
22:25 -9.9 °C -15.2 °C 34327.3 hPa Calm   5.1 km/h 53 % 0 mm
22:30 -9.9 °C -15.1 °C 34327.3 hPa ENE 2.6 km/h 5.1 km/h 54 % 0 mm
22:35 -10 °C -15.1 °C 34327.3 hPa NE 2.6 km/h 5.1 km/h 54 % 0 mm
22:40 -10.1 °C -14.9 °C 34327.3 hPa NE 5.1 km/h 7.7 km/h 55 % 0 mm
22:45 -10.1 °C -14.9 °C 34327.3 hPa NE 2.6 km/h 7.7 km/h 56 % 0 mm
22:55 -10.2 °C -14.9 °C 34327.3 hPa NE 2.6 km/h 7.7 km/h 57 % 0 mm
23:00 -10.3 °C -14.8 °C 34327.3 hPa NE 5.1 km/h 7.7 km/h 58 % 0 mm
23:05 -10.3 °C -14.7 °C 34327.3 hPa NE 5.1 km/h 7.7 km/h 59 % 0 mm
23:10 -10.4 °C -14.7 °C 34327.3 hPa NE 5.1 km/h 5.1 km/h 59 % 0 mm
23:15 -10.4 °C -14.6 °C 34327.3 hPa NE 2.6 km/h 5.1 km/h 60 % 0 mm
23:20 -10.4 °C -14.7 °C 34327.3 hPa NE 5.1 km/h 5.1 km/h 60 % 0 mm
23:25 -10.4 °C -14.7 °C 34327.3 hPa NE 2.6 km/h 5.1 km/h 60 % 0 mm
23:30 -10.5 °C -14.6 °C 34327.3 hPa ENE 2.6 km/h 5.1 km/h 61 % 0 mm
23:35 -10.6 °C -14.6 °C 34327.3 hPa Calm   5.1 km/h 61 % 0 mm
23:40 -10.6 °C -14.5 °C 34293.4 hPa ENE 3.1 km/h   62 % 0 mm
23:45 -10.6 °C -14.4 °C 34293.4 hPa Calm   2.6 km/h 63 % 0 mm
23:50 -10.6 °C -14.4 °C 34293.4 hPa NE 2.6 km/h 5.1 km/h 63 % 0 mm
23:55 -10.7 °C -14.5 °C 34327.3 hPa ENE 6 km/h 6 km/h 63 % 0 mm
Meteo Sesrovires
Elogis d' Weather Underground - 1.5 mb

Guio original per  Jim McMurry - jmcmurry@mwt.net Adaptat per a la plantilla per  Wim van der Kuil - Leuven-Template.eu

Trobareu la nostra informacio del temps tambe a:

Weather Underground

AWEKAS